createdAt,value
2022-08-17T00:01:24.351Z,13.00
2022-08-17T00:04:11.667Z,13.97
2022-08-17T00:06:57.332Z,13.83
2022-08-17T00:09:40.413Z,14.70
2022-08-17T00:12:41.202Z,15.67
2022-08-17T00:15:26.585Z,14.47
2022-08-17T00:19:05.705Z,16.17
2022-08-17T00:21:13.751Z,16.53
2022-08-17T00:23:58.319Z,16.03
2022-08-17T00:26:44.960Z,15.23
2022-08-17T00:29:28.420Z,15.67
2022-08-17T00:33:12.285Z,14.93
2022-08-17T00:35:17.688Z,15.53
2022-08-17T00:38:00.776Z,16.33
2022-08-17T00:40:49.356Z,16.27
2022-08-17T00:43:37.567Z,15.80
2022-08-17T00:46:24.664Z,15.97
2022-08-17T00:49:09.709Z,15.00
2022-08-17T00:51:57.157Z,15.23
2022-08-17T00:54:43.376Z,15.43
2022-08-17T00:57:32.095Z,14.50
2022-08-17T01:00:19.662Z,14.50
2022-08-17T01:03:07.664Z,13.67
2022-08-17T01:05:52.415Z,13.77
2022-08-17T01:08:37.028Z,13.57
2022-08-17T01:11:21.019Z,13.50
2022-08-17T01:14:05.730Z,14.50
2022-08-17T01:16:50.618Z,12.70
2022-08-17T01:19:37.734Z,13.67
2022-08-17T01:22:24.111Z,13.20
2022-08-17T01:25:10.449Z,13.87
2022-08-17T01:27:53.616Z,12.90
2022-08-17T01:30:57.027Z,13.43
2022-08-17T01:33:40.154Z,13.80
2022-08-17T01:36:23.274Z,12.60
2022-08-17T01:39:10.898Z,12.83
2022-08-17T01:41:59.946Z,12.80
2022-08-17T01:44:43.202Z,12.37
2022-08-17T01:47:26.373Z,13.27
2022-08-17T01:50:12.242Z,12.80
2022-08-17T01:53:00.838Z,13.80
2022-08-17T01:55:51.724Z,13.63
2022-08-17T01:58:36.896Z,13.27
2022-08-17T02:01:23.085Z,12.77
2022-08-17T02:04:08.450Z,13.03
2022-08-17T02:06:54.472Z,13.23
2022-08-17T02:09:37.858Z,12.97
2022-08-17T02:12:39.117Z,13.57
2022-08-17T02:15:23.640Z,13.53
2022-08-17T02:18:08.668Z,13.27
2022-08-17T02:20:51.776Z,13.13
2022-08-17T02:23:37.802Z,13.77
2022-08-17T02:26:25.720Z,13.87
2022-08-17T02:29:12.091Z,14.30
2022-08-17T02:31:55.206Z,14.30
2022-08-17T02:34:38.344Z,14.07
2022-08-17T02:37:21.455Z,15.43
2022-08-17T02:40:06.771Z,15.10
2022-08-17T02:42:50.252Z,15.43
2022-08-17T02:45:35.219Z,15.83
2022-08-17T02:48:31.201Z,18.30
2022-08-17T02:51:15.158Z,16.07
2022-08-17T02:54:39.446Z,16.73
2022-08-17T02:57:03.043Z,16.07
2022-08-17T02:59:49.062Z,15.73
2022-08-17T03:02:39.251Z,15.40
2022-08-17T03:05:24.679Z,16.13
2022-08-17T03:08:11.745Z,14.80
2022-08-17T03:10:56.572Z,16.07
2022-08-17T03:13:39.711Z,30.97
2022-08-17T03:16:22.808Z,15.30
2022-08-17T03:19:07.280Z,15.03
2022-08-17T03:21:54.931Z,14.87
2022-08-17T03:24:38.579Z,15.23
2022-08-17T03:27:23.253Z,14.73
2022-08-17T03:30:09.027Z,13.33
2022-08-17T03:32:55.262Z,13.20
2022-08-17T03:35:41.455Z,13.03
2022-08-17T03:38:24.877Z,14.40
2022-08-17T03:41:08.821Z,15.20
2022-08-17T03:43:51.894Z,18.47
2022-08-17T03:46:52.252Z,14.97
2022-08-17T03:49:52.448Z,14.37
2022-08-17T03:52:54.586Z,15.20
2022-08-17T03:55:55.815Z,14.60
2022-08-17T03:58:38.867Z,15.27
2022-08-17T04:01:23.398Z,13.87
2022-08-17T04:04:07.347Z,15.27
2022-08-17T04:06:50.446Z,17.77
2022-08-17T04:09:35.048Z,15.87
2022-08-17T04:12:20.298Z,15.83
2022-08-17T04:15:03.392Z,17.33
2022-08-17T04:17:46.464Z,16.57
2022-08-17T04:20:29.551Z,21.73
2022-08-17T04:23:15.553Z,20.03
2022-08-17T04:26:00.092Z,18.47
2022-08-17T04:28:43.580Z,16.97
2022-08-17T04:31:27.574Z,16.37
2022-08-17T04:34:10.709Z,16.97
2022-08-17T04:36:53.839Z,17.27
2022-08-17T04:39:36.929Z,17.03
2022-08-17T04:42:20.370Z,17.27
2022-08-17T04:45:03.831Z,17.57
2022-08-17T04:47:46.881Z,17.17
2022-08-17T04:50:30.028Z,15.67
2022-08-17T04:53:13.291Z,16.17
2022-08-17T04:55:58.329Z,16.77
2022-08-17T04:58:43.080Z,16.27
2022-08-17T05:01:29.037Z,16.30
2022-08-17T05:04:21.422Z,16.83
2022-08-17T05:07:23.075Z,16.93
2022-08-17T05:10:08.118Z,17.77
2022-08-17T05:13:00.410Z,17.33
2022-08-17T05:15:47.768Z,17.53
2022-08-17T05:18:31.993Z,16.83
2022-08-17T05:21:16.414Z,17.47
2022-08-17T05:23:59.578Z,16.87
2022-08-17T05:26:42.671Z,17.27
2022-08-17T05:29:35.271Z,17.13
2022-08-17T05:32:39.111Z,17.20
2022-08-17T05:35:24.288Z,16.93
2022-08-17T05:38:08.095Z,17.47
2022-08-17T05:40:51.808Z,16.73
2022-08-17T05:43:36.574Z,16.67
2022-08-17T05:46:23.491Z,17.57
2022-08-17T05:49:09.089Z,17.87
2022-08-17T05:52:08.986Z,17.57
2022-08-17T05:55:08.509Z,16.97
2022-08-17T05:58:07.809Z,17.33
2022-08-17T06:01:01.358Z,15.67
2022-08-17T06:03:50.622Z,16.17
2022-08-17T06:06:41.772Z,14.90
2022-08-17T06:09:36.906Z,15.70
2022-08-17T06:12:44.266Z,15.67
2022-08-17T06:15:34.071Z,15.23
2022-08-17T06:18:19.798Z,14.97
2022-08-17T06:21:08.354Z,16.57
2022-08-17T06:23:58.150Z,14.83
2022-08-17T06:26:44.308Z,14.67
2022-08-17T06:29:38.256Z,16.20
2022-08-17T06:32:21.557Z,15.00
2022-08-17T06:35:05.573Z,15.30
2022-08-17T06:38:00.739Z,15.27
2022-08-17T06:41:03.788Z,13.70
2022-08-17T06:44:04.712Z,14.80
2022-08-17T06:46:52.287Z,15.83
2022-08-17T06:49:42.794Z,17.93
2022-08-17T06:52:46.906Z,16.00
2022-08-17T06:55:38.058Z,14.77
2022-08-17T06:58:29.666Z,15.10
2022-08-17T07:01:17.045Z,15.20
2022-08-17T07:04:11.739Z,14.47
2022-08-17T07:07:01.703Z,14.63
2022-08-17T07:09:46.057Z,14.40
2022-08-17T07:12:37.518Z,14.90
2022-08-17T07:15:28.134Z,14.73
2022-08-17T07:18:11.622Z,16.80
2022-08-17T07:21:04.633Z,13.80
2022-08-17T07:24:02.154Z,13.67
2022-08-17T07:26:49.686Z,12.70
2022-08-17T07:29:39.912Z,11.07
2022-08-17T07:32:31.527Z,11.70
2022-08-17T07:35:21.183Z,11.17
2022-08-17T07:38:25.109Z,10.60
2022-08-17T07:41:12.078Z,14.17
2022-08-17T07:43:55.265Z,11.50
2022-08-17T07:47:06.788Z,13.27
2022-08-17T07:49:51.310Z,10.87
2022-08-17T07:52:51.409Z,11.37
2022-08-17T07:55:40.527Z,11.60
2022-08-17T07:58:26.598Z,13.23
2022-08-17T08:01:11.718Z,11.73
2022-08-17T08:03:58.164Z,11.32
2022-08-17T08:06:49.845Z,11.60
2022-08-17T08:09:38.490Z,11.43
2022-08-17T08:12:34.475Z,11.45
2022-08-17T08:15:19.804Z,11.48
2022-08-17T08:18:06.030Z,10.68
2022-08-17T08:20:54.062Z,11.48
2022-08-17T08:23:47.633Z,10.10
2022-08-17T08:26:38.714Z,10.80
2022-08-17T08:29:33.028Z,10.30
2022-08-17T08:32:25.180Z,10.65
2022-08-17T08:35:11.510Z,10.27
2022-08-17T08:38:03.655Z,8.93
2022-08-17T08:41:02.607Z,9.98
2022-08-17T08:43:56.992Z,9.48
2022-08-17T08:46:50.146Z,9.75
2022-08-17T08:50:37.209Z,10.25
2022-08-17T08:53:31.997Z,9.93
2022-08-17T08:56:25.932Z,9.32
2022-08-17T08:59:21.994Z,8.45
2022-08-17T09:02:22.083Z,8.20
2022-08-17T09:05:22.603Z,8.38
2022-08-17T09:08:17.627Z,9.57
2022-08-17T09:11:06.140Z,8.50
2022-08-17T09:13:57.886Z,8.90
2022-08-17T09:16:45.849Z,8.80
2022-08-17T09:19:33.301Z,8.23
2022-08-17T09:22:31.560Z,8.48
2022-08-17T09:25:17.590Z,9.05
2022-08-17T09:28:05.294Z,8.20
2022-08-17T09:30:53.615Z,8.52
2022-08-17T09:33:41.731Z,9.00
2022-08-17T09:36:31.178Z,8.23
2022-08-17T09:39:18.678Z,7.80
2022-08-17T09:42:08.079Z,7.93
2022-08-17T09:45:03.156Z,8.10
2022-08-17T09:47:55.120Z,7.65
2022-08-17T09:51:04.074Z,7.90
2022-08-17T09:53:49.828Z,7.68
2022-08-17T09:56:46.244Z,7.47
2022-08-17T09:59:47.562Z,7.95
2022-08-17T10:03:03.138Z,7.18
2022-08-17T10:05:56.500Z,7.38
2022-08-17T10:08:45.673Z,7.93
2022-08-17T10:11:50.444Z,7.07
2022-08-17T10:14:43.789Z,7.15
2022-08-17T10:17:38.019Z,7.35
2022-08-17T10:20:27.085Z,7.65
2022-08-17T10:23:36.090Z,7.57
2022-08-17T10:26:25.036Z,6.75
2022-08-17T10:29:17.515Z,6.97
2022-08-17T10:32:08.801Z,7.28
2022-08-17T10:35:18.034Z,7.30
2022-08-17T10:38:30.230Z,7.68
2022-08-17T10:41:28.577Z,7.47
2022-08-17T10:44:37.031Z,7.45
2022-08-17T10:47:20.143Z,6.47
2022-08-17T10:50:38.120Z,7.25
2022-08-17T10:53:54.916Z,7.93
2022-08-17T10:56:50.545Z,8.50
2022-08-17T10:59:53.237Z,7.50
2022-08-17T11:02:45.808Z,7.90
2022-08-17T11:05:44.210Z,8.70
2022-08-17T11:08:59.981Z,7.82
2022-08-17T11:12:00.425Z,8.50
2022-08-17T11:15:01.139Z,9.05
2022-08-17T11:18:06.933Z,8.80
2022-08-17T11:21:24.194Z,9.10
2022-08-17T11:24:31.447Z,9.57
2022-08-17T11:27:27.601Z,9.67
2022-08-17T11:30:14.781Z,9.60
2022-08-17T11:32:58.511Z,9.23
2022-08-17T11:35:52.517Z,9.40
2022-08-17T11:38:47.068Z,9.30
2022-08-17T11:41:41.588Z,10.30
2022-08-17T11:44:38.852Z,10.20
2022-08-17T11:48:02.563Z,9.90
2022-08-17T11:51:22.918Z,10.03
2022-08-17T11:54:32.156Z,9.90
2022-08-17T11:58:00.278Z,10.03
2022-08-17T12:00:58.402Z,11.03
2022-08-17T12:03:53.958Z,10.83
2022-08-17T12:06:50.355Z,10.77
2022-08-17T12:09:35.325Z,10.57
2022-08-17T12:12:21.622Z,10.53
2022-08-17T12:15:10.955Z,11.10
2022-08-17T12:17:57.932Z,10.27
2022-08-17T12:20:46.269Z,11.00
2022-08-17T12:23:40.703Z,11.37
2022-08-17T12:26:31.227Z,11.57
2022-08-17T12:29:35.624Z,10.60
2022-08-17T12:32:23.829Z,10.93
2022-08-17T12:35:21.479Z,10.70
2022-08-17T12:38:31.989Z,10.20
2022-08-17T12:41:29.519Z,11.53
2022-08-17T12:44:16.228Z,10.33
2022-08-17T12:47:21.103Z,11.00
2022-08-17T12:50:29.158Z,10.50
2022-08-17T12:53:14.005Z,10.90
2022-08-17T12:55:58.899Z,11.07
2022-08-17T12:58:53.539Z,10.73
2022-08-17T13:01:41.512Z,10.83
2022-08-17T13:04:24.684Z,11.13
2022-08-17T13:07:27.029Z,11.00
2022-08-17T13:10:19.559Z,11.30
2022-08-17T13:13:04.970Z,10.93
2022-08-17T13:15:54.707Z,11.13
2022-08-17T13:18:42.071Z,10.03
2022-08-17T13:21:30.593Z,10.27
2022-08-17T13:24:20.364Z,10.40
2022-08-17T13:27:08.693Z,11.20
2022-08-17T13:29:56.474Z,10.97
2022-08-17T13:32:43.750Z,10.30
2022-08-17T13:35:39.290Z,10.17
2022-08-17T13:38:41.212Z,10.43
2022-08-17T13:41:43.727Z,10.70
2022-08-17T13:44:36.606Z,9.80
2022-08-17T13:47:22.129Z,10.70
2022-08-17T13:50:05.731Z,9.73
2022-08-17T13:52:51.973Z,10.57
2022-08-17T13:55:35.473Z,9.73
2022-08-17T13:58:25.470Z,10.30
2022-08-17T14:01:30.749Z,10.50
2022-08-17T14:04:16.229Z,10.57
2022-08-17T14:07:01.890Z,10.93
2022-08-17T14:09:49.798Z,10.70
2022-08-17T14:12:35.764Z,11.00
2022-08-17T14:15:23.005Z,10.43
2022-08-17T14:18:56.187Z,10.33
2022-08-17T14:21:35.966Z,10.50
2022-08-17T14:24:23.704Z,11.87
2022-08-17T14:27:09.116Z,16.40
2022-08-17T14:29:53.356Z,18.73
2022-08-17T14:32:41.435Z,14.33
2022-08-17T14:35:27.984Z,15.57
2022-08-17T14:38:11.361Z,13.77
2022-08-17T14:40:54.544Z,15.50
2022-08-17T14:43:38.019Z,11.60
2022-08-17T14:46:21.547Z,11.53
2022-08-17T14:49:06.119Z,18.80
2022-08-17T14:51:49.587Z,11.67
2022-08-17T14:54:34.532Z,13.83
2022-08-17T14:57:23.253Z,13.03
2022-08-17T15:00:17.604Z,11.40
2022-08-17T15:03:02.988Z,11.23
2022-08-17T15:05:48.625Z,13.00
2022-08-17T15:08:32.195Z,19.00
2022-08-17T15:11:15.317Z,11.60
2022-08-17T15:13:58.430Z,12.23
2022-08-17T15:16:41.574Z,11.77
2022-08-17T15:19:24.835Z,14.23
2022-08-17T15:22:19.867Z,11.90
2022-08-17T15:25:06.442Z,11.40
2022-08-17T15:27:49.853Z,12.00
2022-08-17T15:30:33.190Z,13.53
2022-08-17T15:33:17.851Z,11.60
2022-08-17T15:36:02.963Z,11.23
2022-08-17T15:38:47.777Z,11.20
2022-08-17T15:41:31.311Z,12.90
2022-08-17T15:44:14.542Z,11.47
2022-08-17T15:46:57.644Z,11.70
2022-08-17T15:49:41.735Z,11.80
2022-08-17T15:52:26.807Z,13.77
2022-08-17T15:55:15.275Z,16.27
2022-08-17T15:57:58.922Z,12.47
2022-08-17T16:00:53.001Z,13.43
2022-08-17T16:04:04.112Z,13.07
2022-08-17T16:06:48.966Z,15.17
2022-08-17T16:09:32.067Z,12.00
2022-08-17T16:12:18.723Z,11.37
2022-08-17T16:15:03.111Z,10.50
2022-08-17T16:17:46.227Z,11.23
2022-08-17T16:20:30.732Z,10.20
2022-08-17T16:23:18.513Z,14.87
2022-08-17T16:26:03.235Z,14.53
2022-08-17T16:28:48.140Z,10.33
2022-08-17T16:31:31.306Z,10.17
2022-08-17T16:34:17.924Z,13.93
2022-08-17T16:37:01.603Z,10.50
2022-08-17T16:39:45.080Z,12.83
2022-08-17T16:42:30.756Z,14.43
2022-08-17T16:45:18.600Z,12.20
2022-08-17T16:48:01.751Z,18.17
2022-08-17T16:51:03.873Z,15.80
2022-08-17T16:53:47.423Z,15.40
2022-08-17T16:56:42.660Z,16.63
2022-08-17T16:59:38.750Z,16.07
2022-08-17T17:02:29.815Z,11.63
2022-08-17T17:05:22.248Z,10.63
2022-08-17T17:08:09.664Z,12.53
2022-08-17T17:10:55.892Z,11.77
2022-08-17T17:13:42.414Z,12.10
2022-08-17T17:16:36.131Z,11.37
2022-08-17T17:19:34.638Z,11.13
2022-08-17T17:22:25.702Z,10.57
2022-08-17T17:25:15.080Z,10.93
2022-08-17T17:28:05.321Z,10.77
2022-08-17T17:30:56.778Z,16.57
2022-08-17T17:33:44.454Z,13.07
2022-08-17T17:36:39.350Z,11.00
2022-08-17T17:39:43.592Z,23.87
2022-08-17T17:42:31.485Z,13.53
2022-08-17T17:45:21.562Z,14.47
2022-08-17T17:48:05.164Z,13.67
2022-08-17T17:50:55.600Z,13.53
2022-08-17T17:53:54.456Z,28.07
2022-08-17T17:56:45.315Z,15.47
2022-08-17T17:59:43.749Z,19.70
2022-08-17T18:02:51.882Z,18.67
2022-08-17T18:05:56.227Z,13.20
2022-08-17T18:08:54.781Z,16.93
2022-08-17T18:12:19.814Z,12.33
2022-08-17T18:15:23.985Z,12.93
2022-08-17T18:18:38.761Z,13.20
2022-08-17T18:21:27.611Z,53.37
2022-08-17T18:24:12.917Z,19.17
2022-08-17T18:26:58.842Z,11.77
2022-08-17T18:29:45.672Z,11.40
2022-08-17T18:32:38.507Z,10.97
2022-08-17T18:35:30.231Z,11.43
2022-08-17T18:38:23.630Z,11.07
2022-08-17T18:41:20.526Z,10.57
2022-08-17T18:44:07.248Z,11.37
2022-08-17T18:47:08.236Z,13.27
2022-08-17T18:49:57.456Z,13.73
2022-08-17T18:52:41.095Z,24.00
2022-08-17T18:55:27.853Z,11.77
2022-08-17T18:58:20.535Z,11.43
2022-08-17T19:01:03.699Z,9.80
2022-08-17T19:03:47.321Z,9.30
2022-08-17T19:06:35.184Z,10.93
2022-08-17T19:09:33.834Z,9.53
2022-08-17T19:12:27.806Z,9.77
2022-08-17T19:15:16.043Z,10.93
2022-08-17T19:18:03.731Z,15.67
2022-08-17T19:21:04.882Z,11.40
2022-08-17T19:23:54.566Z,10.73
2022-08-17T19:26:54.451Z,10.03
2022-08-17T19:29:45.607Z,11.93
2022-08-17T19:32:34.140Z,10.90
2022-08-17T19:35:20.335Z,9.33
2022-08-17T19:38:12.938Z,9.70
2022-08-17T19:41:09.249Z,9.40
2022-08-17T19:44:09.940Z,10.93
2022-08-17T19:47:06.018Z,9.40
2022-08-17T19:50:01.219Z,9.43
2022-08-17T19:52:55.352Z,10.30
2022-08-17T19:55:49.320Z,10.37
2022-08-17T19:58:51.468Z,10.00
2022-08-17T20:01:42.182Z,9.97
2022-08-17T20:04:36.969Z,9.70
2022-08-17T20:07:27.518Z,10.63
2022-08-17T20:10:18.074Z,10.17
2022-08-17T20:13:07.579Z,10.83
2022-08-17T20:15:50.682Z,10.53
2022-08-17T20:18:37.812Z,10.03
2022-08-17T20:21:27.514Z,9.03
2022-08-17T20:24:21.441Z,10.50
2022-08-17T20:27:16.343Z,10.00
2022-08-17T20:30:09.313Z,10.20
2022-08-17T20:32:55.778Z,10.60
2022-08-17T20:35:39.818Z,10.03
2022-08-17T20:38:41.757Z,9.77
2022-08-17T20:41:27.579Z,10.57
2022-08-17T20:44:10.763Z,10.73
2022-08-17T20:47:04.749Z,9.77
2022-08-17T20:49:56.051Z,9.93
2022-08-17T20:52:50.860Z,10.10
2022-08-17T20:55:55.632Z,10.17
2022-08-17T20:58:47.760Z,9.63
2022-08-17T21:01:40.098Z,9.40
2022-08-17T21:04:45.340Z,9.47
2022-08-17T21:07:42.599Z,9.50
2022-08-17T21:10:35.701Z,11.20
2022-08-17T21:13:53.444Z,10.33
2022-08-17T21:17:01.373Z,10.13
2022-08-17T21:20:11.036Z,9.90
2022-08-17T21:23:07.375Z,9.83
2022-08-17T21:26:30.223Z,9.17
2022-08-17T21:29:31.256Z,9.60
2022-08-17T21:32:24.312Z,8.83
2022-08-17T21:35:31.096Z,9.70
2022-08-17T21:38:15.598Z,9.53
2022-08-17T21:40:58.706Z,9.83
2022-08-17T21:43:49.610Z,9.60
2022-08-17T21:46:38.540Z,9.40
2022-08-17T21:49:27.430Z,9.17
2022-08-17T21:52:15.535Z,10.87
2022-08-17T21:55:02.579Z,9.90
2022-08-17T21:57:53.133Z,9.60
2022-08-17T22:01:14.000Z,9.93
2022-08-17T22:04:03.346Z,9.17
2022-08-17T22:06:52.338Z,10.07
2022-08-17T22:09:44.341Z,9.10
2022-08-17T22:12:27.478Z,9.97
2022-08-17T22:15:20.569Z,10.33
2022-08-17T22:18:05.260Z,9.13
2022-08-17T22:20:52.560Z,9.73
2022-08-17T22:23:55.334Z,9.93
2022-08-17T22:27:07.441Z,9.97
2022-08-17T22:29:57.542Z,9.53
2022-08-17T22:32:43.795Z,10.40
2022-08-17T22:35:41.188Z,10.40
2022-08-17T22:38:31.423Z,10.30
2022-08-17T22:41:23.163Z,9.90
2022-08-17T22:44:17.303Z,10.50
2022-08-17T22:47:06.750Z,9.47
2022-08-17T22:49:57.890Z,9.53
2022-08-17T22:52:58.268Z,10.40
2022-08-17T22:56:07.552Z,9.80
2022-08-17T22:59:11.172Z,10.03
2022-08-17T23:02:21.529Z,10.37
2022-08-17T23:05:28.518Z,10.20
2022-08-17T23:08:12.882Z,10.50
2022-08-17T23:11:00.343Z,11.40
2022-08-17T23:13:44.485Z,10.33
2022-08-17T23:16:29.588Z,10.40
2022-08-17T23:19:15.674Z,10.80
2022-08-17T23:21:59.729Z,10.57
2022-08-17T23:24:49.032Z,10.73
2022-08-17T23:27:33.537Z,10.63
2022-08-17T23:30:16.774Z,10.47
2022-08-17T23:33:02.014Z,10.53
2022-08-17T23:35:45.363Z,10.70
2022-08-17T23:38:29.205Z,10.17
2022-08-17T23:41:15.903Z,11.80
2022-08-17T23:44:01.438Z,10.90
2022-08-17T23:46:45.110Z,11.23
2022-08-17T23:49:28.784Z,10.93
2022-08-17T23:52:16.405Z,11.27
2022-08-17T23:55:00.237Z,11.43
2022-08-17T23:57:43.763Z,11.13
